createdAt,value
2023-02-21T00:00:59.856Z,1003.51
2023-02-21T00:03:06.819Z,1003.46
2023-02-21T00:03:56.841Z,1003.44
2023-02-21T00:04:57.747Z,1003.44
2023-02-21T00:05:59.521Z,1003.47
2023-02-21T00:07:04.775Z,1003.45
2023-02-21T00:08:01.570Z,1003.46
2023-02-21T00:09:05.468Z,1003.43
2023-02-21T00:09:58.048Z,1003.45
2023-02-21T00:11:01.148Z,1003.40
2023-02-21T00:11:58.994Z,1003.43
2023-02-21T00:12:58.497Z,1003.41
2023-02-21T00:13:59.337Z,1003.42
2023-02-21T00:15:00.454Z,1003.46
2023-02-21T00:15:59.787Z,1003.47
2023-02-21T00:17:03.243Z,1003.52
2023-02-21T00:18:02.223Z,1003.46
2023-02-21T00:19:00.997Z,1003.42
2023-02-21T00:20:02.051Z,1003.47
2023-02-21T00:21:03.843Z,1003.41
2023-02-21T00:22:04.458Z,1003.36
2023-02-21T00:23:02.150Z,1003.42
2023-02-21T00:24:02.422Z,1003.50
2023-02-21T00:25:02.917Z,1003.51
2023-02-21T00:26:05.853Z,1003.49
2023-02-21T00:27:05.330Z,1003.43
2023-02-21T00:28:09.352Z,1003.51
2023-02-21T00:29:05.239Z,1003.47
2023-02-21T00:30:05.558Z,1003.48
2023-02-21T00:31:07.611Z,1003.44
2023-02-21T00:32:04.562Z,1003.58
2023-02-21T00:33:07.228Z,1003.56
2023-02-21T00:34:10.455Z,1003.62
2023-02-21T00:35:06.562Z,1003.58
2023-02-21T00:36:06.933Z,1003.63
2023-02-21T00:37:07.867Z,1003.56
2023-02-21T00:38:06.296Z,1003.55
2023-02-21T00:39:08.559Z,1003.58
2023-02-21T00:40:08.000Z,1003.53
2023-02-21T00:41:07.951Z,1003.54
2023-02-21T00:42:08.367Z,1003.58
2023-02-21T00:43:10.056Z,1003.62
2023-02-21T00:44:07.825Z,1003.54
2023-02-21T00:45:09.775Z,1003.65
2023-02-21T00:46:09.388Z,1003.54
2023-02-21T00:47:10.195Z,1003.61
2023-02-21T00:48:10.912Z,1003.60
2023-02-21T00:49:10.935Z,1003.61
2023-02-21T00:50:09.796Z,1003.58
2023-02-21T00:51:11.320Z,1003.60
2023-02-21T00:52:09.799Z,1003.54
2023-02-21T00:53:10.243Z,1003.53
2023-02-21T00:54:12.558Z,1003.48
2023-02-21T00:55:10.941Z,1003.43
2023-02-21T00:56:14.927Z,1003.48
2023-02-21T00:57:14.230Z,1003.41
2023-02-21T00:58:12.704Z,1003.38
2023-02-21T00:59:12.217Z,1003.28
2023-02-21T01:00:12.146Z,1003.25
2023-02-21T01:01:14.078Z,1003.35
2023-02-21T01:02:13.555Z,1003.26
2023-02-21T01:03:13.053Z,1003.25
2023-02-21T01:04:13.439Z,1003.35
2023-02-21T01:05:21.806Z,1003.42
2023-02-21T01:06:15.628Z,1003.43
2023-02-21T01:07:14.907Z,1003.40
2023-02-21T01:08:14.159Z,1003.41
2023-02-21T01:09:16.073Z,1003.37
2023-02-21T01:10:16.228Z,1003.35
2023-02-21T01:11:16.390Z,1003.37
2023-02-21T01:12:15.994Z,1003.27
2023-02-21T01:13:17.449Z,1003.37
2023-02-21T01:14:15.909Z,1003.25
2023-02-21T01:15:16.630Z,1003.22
2023-02-21T01:16:18.224Z,1003.40
2023-02-21T01:17:19.218Z,1003.36
2023-02-21T01:18:17.195Z,1003.38
2023-02-21T01:19:29.484Z,1003.38
2023-02-21T01:21:28.132Z,1003.44
2023-02-21T01:22:28.964Z,1003.47
2023-02-21T01:23:27.462Z,1003.44
2023-02-21T01:24:28.550Z,1003.43
2023-02-21T01:25:26.664Z,1003.48
2023-02-21T01:26:27.448Z,1003.45
2023-02-21T01:27:26.831Z,1003.49
2023-02-21T01:28:28.102Z,1003.46
2023-02-21T01:29:28.857Z,1003.36
2023-02-21T01:30:27.829Z,1003.31
2023-02-21T01:31:28.293Z,1003.27
2023-02-21T01:32:28.607Z,1003.35
2023-02-21T01:33:29.238Z,1003.37
2023-02-21T01:34:31.023Z,1003.31
2023-02-21T01:35:29.686Z,1003.31
2023-02-21T01:36:30.577Z,1003.30
2023-02-21T01:37:30.097Z,1003.33
2023-02-21T01:38:30.855Z,1003.25
2023-02-21T01:39:31.994Z,1003.42
2023-02-21T01:40:30.836Z,1003.41
2023-02-21T01:41:31.414Z,1003.46
2023-02-21T01:42:31.915Z,1003.37
2023-02-21T01:43:32.903Z,1003.39
2023-02-21T01:44:31.363Z,1003.41
2023-02-21T01:45:33.689Z,1003.41
2023-02-21T01:46:32.140Z,1003.38
2023-02-21T01:47:32.846Z,1003.34
2023-02-21T01:48:32.893Z,1003.38
2023-02-21T01:49:32.708Z,1003.43
2023-02-21T01:50:33.110Z,1003.37
2023-02-21T01:51:33.902Z,1003.42
2023-02-21T01:52:37.662Z,1003.45
2023-02-21T01:53:34.008Z,1003.46
2023-02-21T01:54:34.253Z,1003.42
2023-02-21T02:00:14.971Z,1003.36
2023-02-21T02:01:27.981Z,1003.32
2023-02-21T02:02:23.859Z,1003.31
2023-02-21T02:05:37.342Z,1003.35
2023-02-21T02:06:24.244Z,1003.32
2023-02-21T02:09:02.041Z,1003.44
2023-02-21T02:10:04.834Z,1003.41
2023-02-21T02:11:03.166Z,1003.47
2023-02-21T02:12:01.372Z,1003.46
2023-02-21T02:13:04.604Z,1003.50
2023-02-21T02:14:02.348Z,1003.50
2023-02-21T02:15:03.186Z,1003.46
2023-02-21T02:16:02.519Z,1003.45
2023-02-21T02:17:03.895Z,1003.48
2023-02-21T02:18:05.096Z,1003.43
2023-02-21T02:19:09.952Z,1003.45
2023-02-21T02:21:22.452Z,1003.44
2023-02-21T02:22:05.784Z,1003.50
2023-02-21T02:23:05.819Z,1003.50
2023-02-21T02:24:05.581Z,1003.33
2023-02-21T02:25:07.474Z,1003.35
2023-02-21T02:26:08.673Z,1003.41
2023-02-21T02:27:08.202Z,1003.37
2023-02-21T02:28:07.587Z,1003.43
2023-02-21T02:29:09.580Z,1003.38
2023-02-21T02:30:08.627Z,1003.47
2023-02-21T02:31:07.988Z,1003.44
2023-02-21T02:32:09.712Z,1003.37
2023-02-21T02:33:10.619Z,1003.37
2023-02-21T02:34:07.945Z,1003.40
2023-02-21T02:35:14.671Z,1003.43
2023-02-21T02:36:10.784Z,1003.30
2023-02-21T02:37:09.192Z,1003.38
2023-02-21T02:38:15.840Z,1003.37
2023-02-21T02:39:19.722Z,1003.37
2023-02-21T02:42:18.969Z,1003.35
2023-02-21T02:43:10.320Z,1003.33
2023-02-21T02:45:23.628Z,1003.40
2023-02-21T02:46:10.258Z,1003.41
2023-02-21T02:47:13.050Z,1003.36
2023-02-21T02:48:12.440Z,1003.32
2023-02-21T02:49:24.965Z,1003.41
2023-02-21T02:50:14.722Z,1003.39
2023-02-21T02:51:24.999Z,1003.38
2023-02-21T02:52:17.703Z,1003.43
2023-02-21T02:53:14.474Z,1003.43
2023-02-21T02:54:11.804Z,1003.39
2023-02-21T02:55:20.976Z,1003.43
2023-02-21T02:56:14.322Z,1003.36
2023-02-21T02:57:32.589Z,1003.36
2023-02-21T03:00:25.402Z,1003.31
2023-02-21T03:01:13.509Z,1003.25
2023-02-21T03:02:13.886Z,1003.28
2023-02-21T03:03:22.085Z,1003.30
2023-02-21T03:04:15.565Z,1003.31
2023-02-21T03:05:15.326Z,1003.29
2023-02-21T03:06:22.260Z,1003.34
2023-02-21T03:07:15.122Z,1003.32
2023-02-21T03:09:38.900Z,1003.47
2023-02-21T03:10:18.936Z,1003.33
2023-02-21T03:11:19.339Z,1003.39
2023-02-21T03:12:15.625Z,1003.39
2023-02-21T03:13:22.210Z,1003.38
2023-02-21T03:14:17.920Z,1003.45
2023-02-21T03:15:16.042Z,1003.47
2023-02-21T03:16:29.669Z,1003.48
2023-02-21T03:17:17.430Z,1003.45
2023-02-21T03:18:19.219Z,1003.49
2023-02-21T03:19:19.517Z,1003.45
2023-02-21T03:20:26.364Z,1003.43
2023-02-21T03:21:26.922Z,1003.54
2023-02-21T03:22:18.632Z,1003.52
2023-02-21T03:23:18.432Z,1003.53
2023-02-21T03:24:20.448Z,1003.56
2023-02-21T03:25:22.608Z,1003.54
2023-02-21T03:26:39.648Z,1003.54
2023-02-21T03:29:55.296Z,1003.55
2023-02-21T03:31:06.537Z,1003.57
2023-02-21T03:31:55.225Z,1003.51
2023-02-21T03:32:52.727Z,1003.52
2023-02-21T03:33:59.417Z,1003.56
2023-02-21T03:34:56.352Z,1003.58
2023-02-21T03:35:53.796Z,1003.63
2023-02-21T03:36:55.461Z,1003.59
2023-02-21T03:39:19.245Z,1003.62
2023-02-21T03:43:33.575Z,1003.57
2023-02-21T03:44:22.071Z,1003.57
2023-02-21T03:45:24.312Z,1003.50
2023-02-21T03:46:42.992Z,1003.56
2023-02-21T03:47:26.956Z,1003.56
2023-02-21T03:48:31.907Z,1003.49
2023-02-21T03:49:23.852Z,1003.49
2023-02-21T03:51:34.606Z,1003.38
2023-02-21T03:52:25.117Z,1003.41
2023-02-21T03:53:25.843Z,1003.50
2023-02-21T03:54:25.408Z,1003.55
2023-02-21T03:55:35.080Z,1003.55
2023-02-21T03:56:41.517Z,1003.59
2023-02-21T03:57:26.394Z,1003.51
2023-02-21T03:58:30.427Z,1003.61
2023-02-21T03:59:27.883Z,1003.55
2023-02-21T04:03:52.850Z,1003.60
2023-02-21T04:06:09.671Z,1003.67
2023-02-21T04:06:57.060Z,1003.61
2023-02-21T04:07:54.025Z,1003.59
2023-02-21T04:08:54.074Z,1003.55
2023-02-21T04:09:53.604Z,1003.54
2023-02-21T04:10:54.238Z,1003.51
2023-02-21T04:11:53.548Z,1003.48
2023-02-21T04:12:59.167Z,1003.52
2023-02-21T04:13:59.220Z,1003.52
2023-02-21T04:17:41.466Z,1003.47
2023-02-21T04:19:18.704Z,1003.47
2023-02-21T04:20:27.934Z,1003.47
2023-02-21T04:21:22.806Z,1003.43
2023-02-21T04:22:19.196Z,1003.44
2023-02-21T04:23:40.952Z,1003.45
2023-02-21T04:24:29.749Z,1003.45
2023-02-21T04:25:20.002Z,1003.47
2023-02-21T04:27:32.501Z,1003.51
2023-02-21T04:28:27.047Z,1003.42
2023-02-21T04:29:20.371Z,1003.41
2023-02-21T04:30:20.424Z,1003.42
2023-02-21T04:31:22.302Z,1003.42
2023-02-21T04:32:31.684Z,1003.43
2023-02-21T04:33:27.822Z,1003.42
2023-02-21T04:34:23.518Z,1003.30
2023-02-21T04:35:22.020Z,1003.38
2023-02-21T04:36:23.655Z,1003.34
2023-02-21T04:37:23.608Z,1003.35
2023-02-21T04:38:28.108Z,1003.29
2023-02-21T04:39:22.614Z,1003.24
2023-02-21T04:40:23.933Z,1003.24
2023-02-21T04:41:23.370Z,1003.22
2023-02-21T04:42:26.812Z,1003.19
2023-02-21T04:43:24.667Z,1003.18
2023-02-21T04:44:24.286Z,1003.11
2023-02-21T04:45:26.399Z,1003.09
2023-02-21T04:46:25.191Z,1003.11
2023-02-21T04:47:26.774Z,1003.07
2023-02-21T04:48:24.602Z,1003.10
2023-02-21T04:49:30.351Z,1003.16
2023-02-21T04:50:25.317Z,1003.06
2023-02-21T04:51:25.456Z,1003.10
2023-02-21T04:52:25.493Z,1003.08
2023-02-21T04:53:26.358Z,1003.02
2023-02-21T04:54:25.984Z,1003.05
2023-02-21T04:55:26.956Z,1003.06
2023-02-21T04:56:32.757Z,1003.00
2023-02-21T04:57:26.337Z,1002.99
2023-02-21T04:58:29.075Z,1003.01
2023-02-21T04:59:30.218Z,1003.03
2023-02-21T05:00:28.782Z,1003.04
2023-02-21T05:01:28.043Z,1003.10
2023-02-21T05:02:29.909Z,1003.09
2023-02-21T05:03:28.565Z,1002.95
2023-02-21T05:04:31.905Z,1002.94
2023-02-21T05:05:31.371Z,1002.96
2023-02-21T05:06:31.873Z,1002.93
2023-02-21T05:07:28.357Z,1003.02
2023-02-21T05:08:30.098Z,1003.06
2023-02-21T05:09:34.925Z,1003.03
2023-02-21T05:10:48.289Z,1002.97
2023-02-21T05:11:31.026Z,1002.97
2023-02-21T05:12:30.167Z,1002.91
2023-02-21T05:14:44.163Z,1002.94
2023-02-21T05:15:30.337Z,1002.95
2023-02-21T05:16:31.113Z,1002.90
2023-02-21T05:17:32.768Z,1002.84
2023-02-21T05:18:31.398Z,1002.88
2023-02-21T05:19:31.544Z,1002.92
2023-02-21T05:20:33.208Z,1002.88
2023-02-21T05:21:33.540Z,1002.93
2023-02-21T05:22:33.386Z,1002.82
2023-02-21T05:23:32.450Z,1002.85
2023-02-21T05:24:39.028Z,1002.89
2023-02-21T05:25:34.288Z,1002.85
2023-02-21T05:26:39.245Z,1002.90
2023-02-21T05:28:49.665Z,1002.82
2023-02-21T05:29:35.226Z,1002.81
2023-02-21T05:30:37.655Z,1002.81
2023-02-21T05:31:34.134Z,1002.81
2023-02-21T05:32:42.849Z,1002.85
2023-02-21T05:33:47.199Z,1002.87
2023-02-21T05:34:39.576Z,1002.91
2023-02-21T05:35:39.744Z,1002.79
2023-02-21T05:36:35.038Z,1002.86
2023-02-21T05:37:37.088Z,1002.82
2023-02-21T05:38:41.650Z,1002.84
2023-02-21T05:39:38.016Z,1002.84
2023-02-21T05:40:36.418Z,1002.85
2023-02-21T05:41:38.773Z,1002.89
2023-02-21T05:42:36.330Z,1002.82
2023-02-21T05:43:40.394Z,1002.92
2023-02-21T05:44:36.039Z,1002.97
2023-02-21T05:45:36.581Z,1003.04
2023-02-21T05:46:39.033Z,1002.97
2023-02-21T05:47:44.666Z,1002.99
2023-02-21T05:48:38.464Z,1002.93
2023-02-21T05:49:49.046Z,1002.97
2023-02-21T05:50:54.970Z,1002.96
2023-02-21T05:51:39.290Z,1002.95
2023-02-21T05:55:02.521Z,1003.01
2023-02-21T05:55:40.587Z,1003.08
2023-02-21T05:56:39.769Z,1003.09
2023-02-21T05:57:39.720Z,1003.10
2023-02-21T05:58:43.933Z,1003.13
2023-02-21T05:59:42.340Z,1003.09
2023-02-21T06:00:45.129Z,1003.12
2023-02-21T06:01:41.342Z,1003.18
2023-02-21T06:02:41.566Z,1003.08
2023-02-21T06:03:44.480Z,1003.08
2023-02-21T06:04:44.075Z,1003.13
2023-02-21T06:05:47.114Z,1003.09
2023-02-21T06:08:02.981Z,1003.14
2023-02-21T06:08:43.645Z,1003.10
2023-02-21T06:09:51.953Z,1003.18
2023-02-21T06:10:48.596Z,1003.17
2023-02-21T06:11:47.358Z,1003.19
2023-02-21T06:12:44.520Z,1003.19
2023-02-21T06:13:44.861Z,1003.14
2023-02-21T06:14:45.314Z,1003.06
2023-02-21T06:15:48.998Z,1003.05
2023-02-21T06:16:46.212Z,1003.04
2023-02-21T06:20:04.855Z,1003.05
2023-02-21T06:20:56.888Z,1003.07
2023-02-21T06:21:48.662Z,1003.15
2023-02-21T06:22:52.112Z,1003.16
2023-02-21T06:24:00.010Z,1003.07
2023-02-21T06:27:04.135Z,1003.21
2023-02-21T06:27:51.308Z,1003.20
2023-02-21T06:29:08.653Z,1003.10
2023-02-21T06:29:51.232Z,1003.13
2023-02-21T06:30:52.225Z,1003.07
2023-02-21T06:31:59.380Z,1003.10
2023-02-21T06:32:52.662Z,1003.15
2023-02-21T06:34:00.770Z,1003.22
2023-02-21T06:34:54.438Z,1003.17
2023-02-21T06:35:57.531Z,1003.18
2023-02-21T06:36:58.281Z,1003.11
2023-02-21T06:38:55.119Z,1003.16
2023-02-21T06:41:33.139Z,1003.05
2023-02-21T06:41:54.554Z,1003.16
2023-02-21T06:42:55.626Z,1003.18
2023-02-21T06:45:45.015Z,1003.20
2023-02-21T06:46:42.818Z,1003.28
2023-02-21T06:47:37.151Z,1003.19
2023-02-21T06:48:33.098Z,1003.19
2023-02-21T06:50:37.528Z,1003.18
2023-02-21T06:52:17.820Z,1003.18
2023-02-21T06:52:36.886Z,1003.12
2023-02-21T06:53:37.858Z,1003.21
2023-02-21T06:54:35.790Z,1003.16
2023-02-21T06:55:42.449Z,1003.22
2023-02-21T07:00:14.471Z,1003.23
2023-02-21T07:00:42.620Z,1003.19
2023-02-21T07:02:46.922Z,1003.27
2023-02-21T07:03:41.778Z,1003.14
2023-02-21T07:04:38.309Z,1003.17
2023-02-21T07:05:39.022Z,1003.27
2023-02-21T07:06:39.521Z,1003.27
2023-02-21T07:07:52.517Z,1003.23
2023-02-21T07:10:57.173Z,1003.25
2023-02-21T07:11:47.280Z,1003.24
2023-02-21T07:12:42.708Z,1003.27
2023-02-21T07:13:40.199Z,1003.34
2023-02-21T07:14:41.360Z,1003.22
2023-02-21T07:15:48.444Z,1003.31
2023-02-21T07:16:41.601Z,1003.35
2023-02-21T07:20:06.356Z,1003.45
2023-02-21T07:24:57.483Z,1003.47
2023-02-21T07:25:48.594Z,1003.43
2023-02-21T07:30:01.593Z,1003.55
2023-02-21T07:40:39.651Z,1003.66
2023-02-21T07:41:27.740Z,1003.65
2023-02-21T07:42:31.593Z,1003.64
2023-02-21T07:43:40.758Z,1003.63
2023-02-21T07:45:28.145Z,1003.66
2023-02-21T07:47:32.483Z,1003.72
2023-02-21T07:48:29.933Z,1003.72
2023-02-21T07:49:30.161Z,1003.81
2023-02-21T07:50:30.528Z,1003.80
2023-02-21T07:51:31.089Z,1003.78
2023-02-21T07:53:42.558Z,1003.81
2023-02-21T07:54:32.339Z,1003.80
2023-02-21T07:55:34.221Z,1003.79
2023-02-21T07:59:50.651Z,1003.81
2023-02-21T08:00:33.125Z,1003.77
2023-02-21T08:01:34.696Z,1003.77
2023-02-21T08:02:37.954Z,1003.82
2023-02-21T08:03:32.654Z,1003.80
2023-02-21T08:05:36.866Z,1003.85
2023-02-21T08:08:54.825Z,1003.85
2023-02-21T08:09:34.912Z,1003.84
2023-02-21T08:13:50.571Z,1003.91
2023-02-21T08:14:35.115Z,1003.86
2023-02-21T08:15:34.680Z,1003.90
2023-02-21T08:16:36.186Z,1003.98
2023-02-21T08:17:36.976Z,1003.94
2023-02-21T08:18:35.753Z,1003.93
2023-02-21T08:19:36.067Z,1003.94
2023-02-21T08:20:35.792Z,1003.96
2023-02-21T08:26:46.941Z,1004.07
2023-02-21T08:27:42.438Z,1004.11
2023-02-21T08:28:37.814Z,1004.05
2023-02-21T08:29:37.718Z,1004.06
2023-02-21T08:30:38.670Z,1004.04
2023-02-21T08:34:02.112Z,1004.12
2023-02-21T08:43:57.519Z,1004.11
2023-02-21T08:46:05.742Z,1004.16
2023-02-21T08:46:50.193Z,1004.10
2023-02-21T08:50:06.511Z,1004.12
2023-02-21T08:53:13.753Z,1004.13
2023-02-21T08:54:00.878Z,1004.14
2023-02-21T08:54:58.422Z,1004.18
2023-02-21T08:56:09.524Z,1004.15
2023-02-21T08:57:05.159Z,1004.14
2023-02-21T08:58:00.652Z,1004.17
2023-02-21T08:59:04.035Z,1004.12
2023-02-21T09:00:03.659Z,1004.11
2023-02-21T09:01:05.557Z,1004.12
2023-02-21T09:35:45.170Z,1004.03
2023-02-21T09:49:43.190Z,1004.11
2023-02-21T10:00:51.554Z,1004.08
2023-02-21T10:01:33.577Z,1004.10
2023-02-21T10:04:33.500Z,1004.15
2023-02-21T10:05:36.496Z,1004.20
2023-02-21T10:07:50.413Z,1004.16
2023-02-21T10:08:36.806Z,1004.14
2023-02-21T10:12:41.414Z,1004.09
2023-02-21T10:13:34.983Z,1004.05
2023-02-21T10:14:37.977Z,1004.14
2023-02-21T10:17:22.572Z,1004.07
2023-02-21T10:18:19.404Z,1004.06
2023-02-21T10:19:16.993Z,1004.05
2023-02-21T10:28:19.926Z,1004.11
2023-02-21T10:30:38.918Z,1004.09
2023-02-21T10:37:04.010Z,1004.07
2023-02-21T10:37:52.981Z,1004.00
2023-02-21T10:40:06.675Z,1004.05
2023-02-21T10:45:12.026Z,1004.10
2023-02-21T10:46:00.441Z,1004.08
2023-02-21T10:46:55.591Z,1004.08
2023-02-21T10:47:55.832Z,1004.07
2023-02-21T10:48:58.874Z,1004.12
2023-02-21T10:49:53.792Z,1004.07
2023-02-21T10:51:05.233Z,1004.03
2023-02-21T10:53:09.294Z,1004.04
2023-02-21T10:53:36.682Z,1004.08
2023-02-21T10:55:38.629Z,1004.05
2023-02-21T10:56:35.821Z,1004.11
2023-02-21T10:58:48.034Z,1004.08
2023-02-21T10:59:31.461Z,1004.09
2023-02-21T11:08:36.594Z,1004.07
2023-02-21T11:09:43.562Z,1004.10
2023-02-21T11:19:54.818Z,1004.09
2023-02-21T11:20:35.454Z,1004.08
2023-02-21T11:25:58.834Z,1004.00
2023-02-21T11:43:03.167Z,1003.90
2023-02-21T11:44:52.063Z,1003.90
2023-02-21T11:46:02.167Z,1003.90
2023-02-21T12:16:30.199Z,1003.71
2023-02-21T12:17:38.560Z,1003.74
2023-02-21T12:21:43.951Z,1003.66
2023-02-21T12:29:34.494Z,1003.64
2023-02-21T12:34:30.899Z,1003.54
2023-02-21T12:35:12.027Z,1003.57
2023-02-21T12:36:10.873Z,1003.55
2023-02-21T12:37:12.137Z,1003.62
2023-02-21T12:38:26.990Z,1003.57
2023-02-21T12:39:12.208Z,1003.60
2023-02-21T12:40:17.767Z,1003.51
2023-02-21T12:41:14.145Z,1003.49
2023-02-21T12:42:15.988Z,1003.49
2023-02-21T12:43:19.149Z,1003.51
2023-02-21T12:44:23.502Z,1003.60
2023-02-21T12:45:13.848Z,1003.54
2023-02-21T12:46:14.031Z,1003.51
2023-02-21T12:47:18.499Z,1003.53
2023-02-21T12:48:14.713Z,1003.49
2023-02-21T12:49:18.324Z,1003.48
2023-02-21T12:50:15.013Z,1003.50
2023-02-21T12:51:15.397Z,1003.47
2023-02-21T12:52:15.058Z,1003.47
2023-02-21T12:53:23.982Z,1003.46
2023-02-21T12:54:15.761Z,1003.50
2023-02-21T12:55:20.757Z,1003.49
2023-02-21T12:56:17.619Z,1003.44
2023-02-21T12:57:19.853Z,1003.43
2023-02-21T13:00:01.207Z,1003.47
2023-02-21T13:00:50.379Z,1003.43
2023-02-21T13:03:04.974Z,1003.39
2023-02-21T13:04:03.929Z,1003.35
2023-02-21T13:06:15.675Z,1003.37
2023-02-21T13:06:55.099Z,1003.38
2023-02-21T13:08:53.674Z,1003.35
2023-02-21T13:09:54.539Z,1003.38
2023-02-21T13:10:53.724Z,1003.35
2023-02-21T13:11:52.874Z,1003.39
2023-02-21T13:12:53.280Z,1003.33
2023-02-21T13:13:53.666Z,1003.32
2023-02-21T13:14:54.331Z,1003.33
2023-02-21T13:15:54.452Z,1003.31
2023-02-21T13:16:54.981Z,1003.36
2023-02-21T13:17:59.701Z,1003.33
2023-02-21T13:19:57.000Z,1003.25
2023-02-21T13:20:55.860Z,1003.30
2023-02-21T13:21:56.353Z,1003.30
2023-02-21T13:22:56.920Z,1003.29
2023-02-21T13:23:57.486Z,1003.37
2023-02-21T13:24:57.756Z,1003.31
2023-02-21T13:26:00.378Z,1003.30
2023-02-21T13:26:58.976Z,1003.30
2023-02-21T13:27:58.970Z,1003.28
2023-02-21T13:28:59.489Z,1003.31
2023-02-21T13:30:00.045Z,1003.29
2023-02-21T13:30:58.538Z,1003.27
2023-02-21T13:31:58.905Z,1003.28
2023-02-21T13:32:58.954Z,1003.29
2023-02-21T13:34:02.958Z,1003.22
2023-02-21T13:35:01.002Z,1003.21
2023-02-21T13:35:59.143Z,1003.21
2023-02-21T13:37:01.279Z,1003.20
